Time;durP1;ratioP1;P1;durP2;ratioP2;P2;SDS_P1;SDS_P2;PMS_P1;PMS_P2;Temp;Humidity;BMP_temperature;BMP_pressure;BME280_temperature;BME280_humidity;BME280_pressure;Samples;Min_cycle;Max_cycle;Signal;HPM_P1;HPM_P2
2022/08/15 00:02:06;;;;;;;;;;;;;;;;;;5065899;28;19999;-48
2022/08/15 00:04:32;;;;;;;;;;;;;;;;;;5065399;28;19912;-47
2022/08/15 00:06:58;;;;;;;;;;;;;;;;;;5065099;28;19919;-49
2022/08/15 00:09:24;;;;;;;;;;;;;;;;;;5065922;28;19909;-48
2022/08/15 00:11:50;;;;;;;;;;;;;;;;;;5064733;28;20457;-48
2022/08/15 00:14:18;;;;;;;;;;;;;;;;;;5064315;28;21295;-46
2022/08/15 00:16:44;;;;;;;;;;;;;;;;;;5065420;28;19918;-47
2022/08/15 00:19:10;;;;;;;;;;;;;;;;;;5065116;28;19915;-47
2022/08/15 00:21:36;;;;;;;;;;;;;;;;;;5065472;28;19908;-47
2022/08/15 00:24:03;;;;;;;;;;;;;;;;;;5065554;28;19945;-49
2022/08/15 00:26:29;;;;;;;;;;;;;;;;;;5060094;28;19913;-48
2022/08/15 00:28:55;;;;;;;;;;;;;;;;;;5045289;28;19909;-47
2022/08/15 00:31:21;;;;;;;;;;;;;;;;;;5044682;28;19967;-48
2022/08/15 00:33:47;;;;;;;;;;;;;;;;;;5044544;28;19955;-47
2022/08/15 00:36:14;;;;;;;;;;;;;;;;;;5045527;28;19962;-48
2022/08/15 00:38:40;;;;;;;;;;;;;;;;;;5045421;28;19991;-49
2022/08/15 00:43:51;;;;;;;;;;;;;;;;;;5044522;28;19979;-48
2022/08/15 00:46:17;;;;;;;;;;;;;;;;;;5044685;28;20369;-47
2022/08/15 00:48:44;;;;;;;;;;;;;;;;;;5045062;28;19966;-49
2022/08/15 00:51:10;;;;;;;;;;;;;;;;;;5045412;28;20331;-48
2022/08/15 00:53:36;;;;;;;;;;;;;;;;;;5044589;28;19912;-48
2022/08/15 00:56:03;;;;;;;;;;;;;;;;;;5044716;28;19936;-49
2022/08/15 00:58:30;;;;;;;;;;;;;;;;;;5045147;28;19956;-49
2022/08/15 01:00:56;;;;;;;;;;;;;;;;;;5044658;28;19909;-49
2022/08/15 01:03:24;;;;;;;;;;;;;;;;;;5044439;28;20299;-49
2022/08/15 01:05:51;;;;;;;;;;;;;;;;;;5046126;28;19999;-48
2022/08/15 01:08:17;;;;;;;;;;;;;;;;;;5048559;28;19955;-46
2022/08/15 01:10:43;;;;;;;;;;;;;;;;;;5048600;28;19925;-46
2022/08/15 01:13:09;;;;;;;;;;;;;;;;;;5048955;28;19917;-48
2022/08/15 01:15:35;;;;;;;;;;;;;;;;;;5048220;28;19909;-47
2022/08/15 01:18:01;;;;;;;;;;;;;;;;;;5048494;28;20388;-49
2022/08/15 01:20:28;;;;;;;;;;;;;;;;;;5048119;28;19916;-47
2022/08/15 01:22:53;;;;;;;;;;;;;;;;;;5048030;28;19909;-48
2022/08/15 01:25:20;;;;;;;;;;;;;;;;;;5048242;28;20241;-49
2022/08/15 01:27:48;;;;;;;;;;;;;;;;;;5048169;28;20435;-46
2022/08/15 01:30:15;;;;;;;;;;;;;;;;;;5048309;28;20297;-46
2022/08/15 01:32:42;;;;;;;;;;;;;;;;;;5048176;28;19917;-47
2022/08/15 01:35:08;;;;;;;;;;;;;;;;;;5048063;28;19916;-49
2022/08/15 01:37:33;;;;;;;;;;;;;;;;;;5047824;28;20249;-49
2022/08/15 01:40:01;;;;;;;;;;;;;;;;;;5047947;28;19912;-47
2022/08/15 01:42:29;;;;;;;;;;;;;;;;;;5047918;28;20429;-48
2022/08/15 01:44:54;;;;;;;;;;;;;;;;;;5047919;28;20612;-48
2022/08/15 01:47:20;;;;;;;;;;;;;;;;;;5047707;28;19909;-49
2022/08/15 01:49:46;;;;;;;;;;;;;;;;;;5047610;28;19909;-46
2022/08/15 01:52:12;;;;;;;;;;;;;;;;;;5048485;28;19931;-47
2022/08/15 01:54:38;;;;;;;;;;;;;;;;;;5048030;28;19912;-47
2022/08/15 01:57:04;;;;;;;;;;;;;;;;;;5047736;28;20327;-48
2022/08/15 01:59:30;;;;;;;;;;;;;;;;;;5047687;28;19913;-49
2022/08/15 02:01:56;;;;;;;;;;;;;;;;;;5047264;28;20057;-45
2022/08/15 02:04:21;;;;;;;;;;;;;;;;;;5047319;28;19912;-46
2022/08/15 02:06:47;;;;;;;;;;;;;;;;;;5047181;28;19924;-46
2022/08/15 02:09:14;;;;;;;;;;;;;;;;;;5047541;28;20379;-46
2022/08/15 02:11:41;;;;;;;;;;;;;;;;;;5047443;28;19928;-46
2022/08/15 02:14:07;;;;;;;;;;;;;;;;;;5047567;28;19923;-48
2022/08/15 02:16:35;;;;;;;;;;;;;;;;;;5046639;28;20304;-46
2022/08/15 02:19:01;;;;;;;;;;;;;;;;;;5046824;28;19908;-47
2022/08/15 02:21:27;;;;;;;;;;;;;;;;;;5047136;28;20366;-47
2022/08/15 02:23:53;;;;;;;;;;;;;;;;;;5046967;28;19917;-48
2022/08/15 02:26:19;;;;;;;;;;;;;;;;;;5047540;28;20007;-49
2022/08/15 02:28:45;;;;;;;;;;;;;;;;;;5047407;28;20000;-48
2022/08/15 02:31:13;;;;;;;;;;;;;;;;;;5046157;28;20026;-46
2022/08/15 02:33:39;;;;;;;;;;;;;;;;;;5046061;28;19964;-48
2022/08/15 02:36:05;;;;;;;;;;;;;;;;;;5047194;28;20230;-49
2022/08/15 02:38:31;;;;;;;;;;;;;;;;;;5046497;28;19975;-49
2022/08/15 02:40:58;;;;;;;;;;;;;;;;;;5046894;28;19936;-50
2022/08/15 02:43:24;;;;;;;;;;;;;;;;;;5047424;28;19909;-48
2022/08/15 02:45:51;;;;;;;;;;;;;;;;;;5046281;28;20417;-48
2022/08/15 02:48:18;;;;;;;;;;;;;;;;;;5046714;28;19908;-48
2022/08/15 02:50:45;;;;;;;;;;;;;;;;;;5046339;28;19913;-44
2022/08/15 02:53:11;;;;;;;;;;;;;;;;;;5046600;28;19921;-50
2022/08/15 02:55:37;;;;;;;;;;;;;;;;;;5046659;28;20430;-49
2022/08/15 02:58:03;;;;;;;;;;;;;;;;;;5046342;28;19919;-48
2022/08/15 03:00:30;;;;;;;;;;;;;;;;;;5046246;28;20376;-47
2022/08/15 03:02:56;;;;;;;;;;;;;;;;;;5046519;28;19917;-45
2022/08/15 03:05:23;;;;;;;;;;;;;;;;;;5047029;28;20434;-49
2022/08/15 03:07:50;;;;;;;;;;;;;;;;;;5046305;28;20287;-49
2022/08/15 03:10:16;;;;;;;;;;;;;;;;;;5046607;28;19927;-47
2022/08/15 03:12:42;;;;;;;;;;;;;;;;;;5046147;28;19912;-48
2022/08/15 03:15:08;;;;;;;;;;;;;;;;;;5046349;28;19909;-46
2022/08/15 03:17:38;;;;;;;;;;;;;;;;;;5045710;28;20012;-49
2022/08/15 03:20:06;;;;;;;;;;;;;;;;;;5046272;28;19999;-46
2022/08/15 03:22:32;;;;;;;;;;;;;;;;;;5045474;28;20008;-48
2022/08/15 03:24:58;;;;;;;;;;;;;;;;;;5045994;28;20007;-48
2022/08/15 03:27:25;;;;;;;;;;;;;;;;;;5046627;28;19948;-47
2022/08/15 03:29:52;;;;;;;;;;;;;;;;;;5044519;28;19912;-49
2022/08/15 03:32:18;;;;;;;;;;;;;;;;;;5045660;28;19948;-46
2022/08/15 03:34:44;;;;;;;;;;;;;;;;;;5045676;28;19960;-45
2022/08/15 03:37:10;;;;;;;;;;;;;;;;;;5045894;28;19915;-47
2022/08/15 03:39:35;;;;;;;;;;;;;;;;;;5045742;28;19917;-48
2022/08/15 03:42:02;;;;;;;;;;;;;;;;;;5045485;28;19913;-48
2022/08/15 03:44:28;;;;;;;;;;;;;;;;;;5045451;28;20004;-49
2022/08/15 03:46:55;;;;;;;;;;;;;;;;;;5045800;28;19999;-46
2022/08/15 03:49:21;;;;;;;;;;;;;;;;;;5046217;28;19909;-49
2022/08/15 03:51:47;;;;;;;;;;;;;;;;;;5045596;28;19913;-48
2022/08/15 03:54:13;;;;;;;;;;;;;;;;;;5045814;28;19920;-47
2022/08/15 03:56:39;;;;;;;;;;;;;;;;;;5045249;28;20368;-48
2022/08/15 03:59:05;;;;;;;;;;;;;;;;;;5045459;28;19916;-48
2022/08/15 04:01:31;;;;;;;;;;;;;;;;;;5045328;28;20430;-45
2022/08/15 04:03:57;;;;;;;;;;;;;;;;;;5045449;28;20050;-47
2022/08/15 04:06:23;;;;;;;;;;;;;;;;;;5046099;28;20420;-48
2022/08/15 04:08:50;;;;;;;;;;;;;;;;;;5045386;28;19913;-48
2022/08/15 04:11:17;;;;;;;;;;;;;;;;;;5045263;28;20390;-49
2022/08/15 04:13:44;;;;;;;;;;;;;;;;;;5044815;28;20383;-48
2022/08/15 04:16:11;;;;;;;;;;;;;;;;;;5045275;28;19912;-45
2022/08/15 04:18:38;;;;;;;;;;;;;;;;;;5044827;28;19915;-47
2022/08/15 04:21:04;;;;;;;;;;;;;;;;;;5045213;28;19913;-47
2022/08/15 04:23:30;;;;;;;;;;;;;;;;;;5048162;28;19915;-45
2022/08/15 04:25:56;;;;;;;;;;;;;;;;;;5066146;28;20303;-49
2022/08/15 04:28:22;;;;;;;;;;;;;;;;;;5060430;28;19959;-46
2022/08/15 04:30:48;;;;;;;;;;;;;;;;;;5044931;28;20414;-46
2022/08/15 04:33:14;;;;;;;;;;;;;;;;;;5044413;28;19956;-47
2022/08/15 04:35:40;;;;;;;;;;;;;;;;;;5044719;28;19916;-46
2022/08/15 04:38:05;;;;;;;;;;;;;;;;;;5045023;28;19912;-48
2022/08/15 04:40:31;;;;;;;;;;;;;;;;;;5045616;28;19920;-46
2022/08/15 04:43:00;;;;;;;;;;;;;;;;;;5050067;28;19913;-48
2022/08/15 04:45:26;;;;;;;;;;;;;;;;;;5049833;28;19913;-46
2022/08/15 04:47:52;;;;;;;;;;;;;;;;;;5048786;28;20663;-45
2022/08/15 04:50:19;;;;;;;;;;;;;;;;;;5048870;28;20391;-47
2022/08/15 04:52:45;;;;;;;;;;;;;;;;;;5048433;28;20250;-46
2022/08/15 04:55:12;;;;;;;;;;;;;;;;;;5048808;28;20028;-45
2022/08/15 04:57:37;;;;;;;;;;;;;;;;;;5048606;28;20072;-46
2022/08/15 05:00:04;;;;;;;;;;;;;;;;;;5048815;28;19909;-49
2022/08/15 05:02:29;;;;;;;;;;;;;;;;;;5048349;28;19920;-47
2022/08/15 05:04:56;;;;;;;;;;;;;;;;;;5049376;28;19909;-48
2022/08/15 05:07:23;;;;;;;;;;;;;;;;;;5048722;28;20351;-47
2022/08/15 05:09:49;;;;;;;;;;;;;;;;;;5048302;28;19920;-46
2022/08/15 05:12:15;;;;;;;;;;;;;;;;;;5048261;28;19917;-49
2022/08/15 05:14:41;;;;;;;;;;;;;;;;;;5048360;28;20375;-47
2022/08/15 05:17:08;;;;;;;;;;;;;;;;;;5048477;28;19913;-47
2022/08/15 05:19:34;;;;;;;;;;;;;;;;;;5048114;28;20003;-48
2022/08/15 05:22:00;;;;;;;;;;;;;;;;;;5048308;28;19999;-46
2022/08/15 05:24:27;;;;;;;;;;;;;;;;;;5048623;28;20599;-47
2022/08/15 05:26:53;;;;;;;;;;;;;;;;;;5049076;28;19909;-48
2022/08/15 05:29:19;;;;;;;;;;;;;;;;;;5048524;28;19932;-49
2022/08/15 05:31:45;;;;;;;;;;;;;;;;;;5047707;28;19913;-46
2022/08/15 05:34:10;;;;;;;;;;;;;;;;;;5048529;28;20190;-46
2022/08/15 05:36:37;;;;;;;;;;;;;;;;;;5047814;28;19913;-48
2022/08/15 05:39:03;;;;;;;;;;;;;;;;;;5047885;28;19909;-48
2022/08/15 05:41:31;;;;;;;;;;;;;;;;;;5047973;28;19909;-47
2022/08/15 05:43:57;;;;;;;;;;;;;;;;;;5048753;28;20195;-48
2022/08/15 05:46:23;;;;;;;;;;;;;;;;;;5030126;28;19944;-48
2022/08/15 05:48:49;;;;;;;;;;;;;;;;;;5047631;28;20019;-45
2022/08/15 05:51:15;;;;;;;;;;;;;;;;;;5047511;28;20379;-44
2022/08/15 05:53:41;;;;;;;;;;;;;;;;;;5046447;28;19917;-49
2022/08/15 05:56:07;;;;;;;;;;;;;;;;;;5047876;28;19919;-48
2022/08/15 05:58:33;;;;;;;;;;;;;;;;;;5047395;28;20372;-49
2022/08/15 06:00:59;;;;;;;;;;;;;;;;;;5047662;28;20387;-46
2022/08/15 06:03:25;;;;;;;;;;;;;;;;;;5048167;28;20008;-46
2022/08/15 06:05:52;;;;;;;;;;;;;;;;;;5047149;28;19913;-45
2022/08/15 06:08:18;;;;;;;;;;;;;;;;;;5047479;28;19912;-48
2022/08/15 06:10:44;;;;;;;;;;;;;;;;;;5046961;28;19919;-48
2022/08/15 06:13:11;;;;;;;;;;;;;;;;;;5047254;28;19917;-48
2022/08/15 06:15:38;;;;;;;;;;;;;;;;;;5047134;28;20206;-45
2022/08/15 06:18:04;;;;;;;;;;;;;;;;;;5047423;28;20457;-46
2022/08/15 06:20:29;;;;;;;;;;;;;;;;;;5047339;28;19917;-47
2022/08/15 06:22:56;;;;;;;;;;;;;;;;;;5053784;28;19935;-48
2022/08/15 06:25:22;;;;;;;;;;;;;;;;;;5067625;28;19991;-47
2022/08/15 06:27:48;;;;;;;;;;;;;;;;;;5058417;28;20012;-47
2022/08/15 06:30:14;;;;;;;;;;;;;;;;;;5060384;28;19919;-46
2022/08/15 06:32:40;;;;;;;;;;;;;;;;;;5051397;28;19924;-44
2022/08/15 06:35:06;;;;;;;;;;;;;;;;;;5063961;28;20396;-47
2022/08/15 06:37:32;;;;;;;;;;;;;;;;;;5068229;28;19994;-47
2022/08/15 06:39:58;;;;;;;;;;;;;;;;;;5068755;28;19911;-44
2022/08/15 06:42:24;;;;;;;;;;;;;;;;;;5068864;28;19908;-45
2022/08/15 06:44:50;;;;;;;;;;;;;;;;;;5049985;28;20504;-45
2022/08/15 06:47:16;;;;;;;;;;;;;;;;;;5058129;28;19920;-46
2022/08/15 06:49:42;;;;;;;;;;;;;;;;;;5055467;28;19917;-46
2022/08/15 06:52:08;;;;;;;;;;;;;;;;;;5067999;28;20383;-45
2022/08/15 06:54:35;;;;;;;;;;;;;;;;;;5067806;28;19908;-46
2022/08/15 06:57:01;;;;;;;;;;;;;;;;;;5067959;28;20599;-48
2022/08/15 06:59:27;;;;;;;;;;;;;;;;;;5068486;28;19956;-46
2022/08/15 07:01:53;;;;;;;;;;;;;;;;;;5067067;28;19908;-49
2022/08/15 07:04:19;;;;;;;;;;;;;;;;;;5067564;28;19970;-47
2022/08/15 07:06:44;;;;;;;;;;;;;;;;;;5067533;28;19916;-44
2022/08/15 07:09:10;;;;;;;;;;;;;;;;;;5067768;28;19917;-48
2022/08/15 07:11:37;;;;;;;;;;;;;;;;;;5066637;28;19928;-48
2022/08/15 07:14:06;;;;;;;;;;;;;;;;;;5061073;28;19923;-48
2022/08/15 07:16:32;;;;;;;;;;;;;;;;;;5066025;28;19951;-48
2022/08/15 07:18:58;;;;;;;;;;;;;;;;;;5034155;28;19913;-49
2022/08/15 07:21:25;;;;;;;;;;;;;;;;;;5048205;28;19996;-48
2022/08/15 07:23:51;;;;;;;;;;;;;;;;;;5056647;28;19916;-48
2022/08/15 07:26:18;;;;;;;;;;;;;;;;;;5047671;28;19920;-48
2022/08/15 07:28:44;;;;;;;;;;;;;;;;;;5047719;28;19927;-46
2022/08/15 07:31:11;;;;;;;;;;;;;;;;;;5059400;28;20443;-49
2022/08/15 07:33:37;;;;;;;;;;;;;;;;;;5066934;28;20351;-47
2022/08/15 07:36:03;;;;;;;;;;;;;;;;;;5058426;28;20357;-49
2022/08/15 07:38:29;;;;;;;;;;;;;;;;;;5047358;28;19999;-47
2022/08/15 07:40:56;;;;;;;;;;;;;;;;;;5047676;28;19912;-49
2022/08/15 07:43:23;;;;;;;;;;;;;;;;;;5047482;28;20428;-48
2022/08/15 07:45:52;;;;;;;;;;;;;;;;;;5046866;28;19975;-49
2022/08/15 07:48:18;;;;;;;;;;;;;;;;;;5047131;28;20596;-49
2022/08/15 07:50:44;;;;;;;;;;;;;;;;;;5046844;28;19909;-49
2022/08/15 07:53:10;;;;;;;;;;;;;;;;;;5047023;28;19912;-45
2022/08/15 07:55:36;;;;;;;;;;;;;;;;;;5047025;28;20363;-48
2022/08/15 07:58:02;;;;;;;;;;;;;;;;;;5047146;28;19960;-45
2022/08/15 08:00:28;;;;;;;;;;;;;;;;;;5046405;28;19974;-47
2022/08/15 08:02:54;;;;;;;;;;;;;;;;;;5045915;28;19909;-46
2022/08/15 08:05:21;;;;;;;;;;;;;;;;;;5045614;28;20417;-46
2022/08/15 08:07:47;;;;;;;;;;;;;;;;;;5045840;28;19917;-48
2022/08/15 08:10:13;;;;;;;;;;;;;;;;;;5046811;28;20372;-46
2022/08/15 08:12:39;;;;;;;;;;;;;;;;;;5045578;28;19914;-48
2022/08/15 08:15:04;;;;;;;;;;;;;;;;;;5052326;28;19995;-47
2022/08/15 08:17:30;;;;;;;;;;;;;;;;;;5045992;28;19916;-45
2022/08/15 08:19:58;;;;;;;;;;;;;;;;;;5045795;28;19909;-46
2022/08/15 08:22:27;;;;;;;;;;;;;;;;;;5045612;28;19909;-48
2022/08/15 08:24:53;;;;;;;;;;;;;;;;;;5044833;28;19908;-48
2022/08/15 08:27:19;;;;;;;;;;;;;;;;;;5044953;28;19913;-46
2022/08/15 08:29:45;;;;;;;;;;;;;;;;;;5044657;28;19908;-49
2022/08/15 08:32:12;;;;;;;;;;;;;;;;;;5045027;28;19923;-49
2022/08/15 08:34:39;;;;;;;;;;;;;;;;;;5044682;28;19923;-47
2022/08/15 08:37:05;;;;;;;;;;;;;;;;;;5045331;28;20035;-47
2022/08/15 08:39:31;;;;;;;;;;;;;;;;;;5044579;28;19995;-46
2022/08/15 08:41:58;;;;;;;;;;;;;;;;;;5045539;28;19917;-45
2022/08/15 08:44:24;;;;;;;;;;;;;;;;;;5044776;28;19932;-46
2022/08/15 08:46:51;;;;;;;;;;;;;;;;;;5044727;28;19913;-45
2022/08/15 08:49:17;;;;;;;;;;;;;;;;;;5044753;28;19916;-49
2022/08/15 08:51:44;;;;;;;;;;;;;;;;;;5044729;28;19913;-49
2022/08/15 08:54:10;;;;;;;;;;;;;;;;;;5045024;28;19917;-49
2022/08/15 08:56:37;;;;;;;;;;;;;;;;;;5044594;28;19974;-48
2022/08/15 08:59:03;;;;;;;;;;;;;;;;;;5045090;28;19948;-49
2022/08/15 09:01:29;;;;;;;;;;;;;;;;;;5045275;28;19970;-46
2022/08/15 09:03:56;;;;;;;;;;;;;;;;;;5045104;28;19909;-48
2022/08/15 09:06:23;;;;;;;;;;;;;;;;;;5044597;28;20398;-49
2022/08/15 09:08:51;;;;;;;;;;;;;;;;;;5044629;28;19936;-46
2022/08/15 09:11:17;;;;;;;;;;;;;;;;;;5044809;28;19924;-49
2022/08/15 09:13:44;;;;;;;;;;;;;;;;;;5044131;28;20399;-47
2022/08/15 09:16:10;;;;;;;;;;;;;;;;;;5044758;28;19995;-48
2022/08/15 09:18:37;;;;;;;;;;;;;;;;;;5044603;28;20008;-46
2022/08/15 09:21:03;;;;;;;;;;;;;;;;;;5044762;28;19999;-47
2022/08/15 09:23:29;;;;;;;;;;;;;;;;;;5045150;28;19959;-49
2022/08/15 09:25:55;;;;;;;;;;;;;;;;;;5045251;28;20406;-48
2022/08/15 09:28:21;;;;;;;;;;;;;;;;;;5048119;28;19909;-49
2022/08/15 09:30:47;;;;;;;;;;;;;;;;;;5048148;28;19913;-48
2022/08/15 09:33:13;;;;;;;;;;;;;;;;;;5048065;28;19953;-47
2022/08/15 09:35:39;;;;;;;;;;;;;;;;;;5048067;28;20301;-45
2022/08/15 09:38:05;;;;;;;;;;;;;;;;;;5048373;28;19915;-45
2022/08/15 09:40:31;;;;;;;;;;;;;;;;;;5047587;28;19920;-46
2022/08/15 09:42:59;;;;;;;;;;;;;;;;;;5048637;28;20007;-47
2022/08/15 09:45:29;;;;;;;;;;;;;;;;;;5048287;28;19908;-47
2022/08/15 09:47:59;;;;;;;;;;;;;;;;;;5048645;28;19912;-47
2022/08/15 09:50:26;;;;;;;;;;;;;;;;;;5048258;28;20387;-49
2022/08/15 09:52:52;;;;;;;;;;;;;;;;;;5047497;28;19916;-45
2022/08/15 09:55:19;;;;;;;;;;;;;;;;;;5047915;28;20430;-48
2022/08/15 09:57:45;;;;;;;;;;;;;;;;;;5047636;28;19916;-45
2022/08/15 10:00:15;;;;;;;;;;;;;;;;;;5047479;28;19913;-46
2022/08/15 10:02:41;;;;;;;;;;;;;;;;;;5047482;28;19919;-47
2022/08/15 10:05:07;;;;;;;;;;;;;;;;;;5047823;28;19913;-48
2022/08/15 10:07:34;;;;;;;;;;;;;;;;;;5047343;28;19917;-48
2022/08/15 10:10:00;;;;;;;;;;;;;;;;;;5047258;28;20388;-45
2022/08/15 10:12:26;;;;;;;;;;;;;;;;;;5047962;28;19913;-46
2022/08/15 10:14:53;;;;;;;;;;;;;;;;;;5047115;28;19912;-49
2022/08/15 10:17:22;;;;;;;;;;;;;;;;;;5047455;28;20323;-47
2022/08/15 10:19:48;;;;;;;;;;;;;;;;;;5047551;28;19918;-46
2022/08/15 10:22:15;;;;;;;;;;;;;;;;;;5047159;28;19935;-50
2022/08/15 10:24:40;;;;;;;;;;;;;;;;;;5046862;28;20370;-49
2022/08/15 10:27:09;;;;;;;;;;;;;;;;;;5047497;28;19912;-49
2022/08/15 10:29:35;;;;;;;;;;;;;;;;;;5046847;28;19915;-47
2022/08/15 10:32:01;;;;;;;;;;;;;;;;;;5047180;28;20307;-47
2022/08/15 10:34:29;;;;;;;;;;;;;;;;;;5047650;28;19992;-47
2022/08/15 10:36:54;;;;;;;;;;;;;;;;;;5046604;28;20288;-48
2022/08/15 10:39:21;;;;;;;;;;;;;;;;;;5046300;28;19916;-48
2022/08/15 10:41:47;;;;;;;;;;;;;;;;;;5046641;28;19991;-48
2022/08/15 10:44:13;;;;;;;;;;;;;;;;;;5046675;28;20020;-46
2022/08/15 10:46:40;;;;;;;;;;;;;;;;;;5046677;28;19909;-48
2022/08/15 10:49:08;;;;;;;;;;;;;;;;;;5046797;28;19912;-47
2022/08/15 10:51:34;;;;;;;;;;;;;;;;;;5028550;28;20138;-48
2022/08/15 10:54:00;;;;;;;;;;;;;;;;;;5047217;28;20175;-49
2022/08/15 10:56:26;;;;;;;;;;;;;;;;;;5047455;28;19909;-49
2022/08/15 10:58:52;;;;;;;;;;;;;;;;;;5046188;28;19913;-50
2022/08/15 11:01:20;;;;;;;;;;;;;;;;;;5046804;28;19920;-50
2022/08/15 11:03:46;;;;;;;;;;;;;;;;;;5046407;28;19915;-48
2022/08/15 11:06:13;;;;;;;;;;;;;;;;;;5047049;28;19935;-49
2022/08/15 11:08:39;;;;;;;;;;;;;;;;;;5046307;28;20003;-50
2022/08/15 11:11:07;;;;;;;;;;;;;;;;;;5046325;28;19935;-49
2022/08/15 11:13:33;;;;;;;;;;;;;;;;;;5045692;28;20408;-50
2022/08/15 11:15:59;;;;;;;;;;;;;;;;;;5047299;28;20050;-48
2022/08/15 11:18:25;;;;;;;;;;;;;;;;;;5046692;28;19912;-49
2022/08/15 11:20:52;;;;;;;;;;;;;;;;;;5046043;28;19919;-49
2022/08/15 11:23:17;;;;;;;;;;;;;;;;;;5046170;28;19917;-47
2022/08/15 11:25:44;;;;;;;;;;;;;;;;;;5046223;28;19940;-47
2022/08/15 11:28:10;;;;;;;;;;;;;;;;;;5046043;28;19909;-50
2022/08/15 11:30:35;;;;;;;;;;;;;;;;;;5045838;28;19932;-48
2022/08/15 11:33:01;;;;;;;;;;;;;;;;;;5045791;28;20404;-47
2022/08/15 11:35:27;;;;;;;;;;;;;;;;;;5046525;28;19917;-48
2022/08/15 11:37:54;;;;;;;;;;;;;;;;;;5045809;28;19982;-50
2022/08/15 11:40:20;;;;;;;;;;;;;;;;;;5045863;28;19916;-49
2022/08/15 11:42:46;;;;;;;;;;;;;;;;;;5045373;28;19909;-49
2022/08/15 11:45:12;;;;;;;;;;;;;;;;;;5045797;28;19991;-48
2022/08/15 11:47:38;;;;;;;;;;;;;;;;;;5045503;28;20015;-49
2022/08/15 11:50:04;;;;;;;;;;;;;;;;;;5044897;28;19912;-47
2022/08/15 11:52:31;;;;;;;;;;;;;;;;;;5046242;28;19963;-47
2022/08/15 11:54:57;;;;;;;;;;;;;;;;;;5046449;28;19971;-50
2022/08/15 11:57:23;;;;;;;;;;;;;;;;;;5045261;28;20391;-47
2022/08/15 11:59:49;;;;;;;;;;;;;;;;;;5045499;28;20243;-46
2022/08/15 12:02:15;;;;;;;;;;;;;;;;;;5045389;28;20001;-46
2022/08/15 12:04:41;;;;;;;;;;;;;;;;;;5045481;28;20004;-46
2022/08/15 12:07:08;;;;;;;;;;;;;;;;;;5045359;28;19916;-48
2022/08/15 12:09:34;;;;;;;;;;;;;;;;;;5045173;28;19917;-47
2022/08/15 12:12:00;;;;;;;;;;;;;;;;;;5045524;28;19995;-48
2022/08/15 12:14:27;;;;;;;;;;;;;;;;;;5045945;28;20221;-47
2022/08/15 12:16:53;;;;;;;;;;;;;;;;;;5045077;28;19913;-47
2022/08/15 12:19:19;;;;;;;;;;;;;;;;;;5045380;28;20010;-50
2022/08/15 12:21:46;;;;;;;;;;;;;;;;;;5047985;28;19919;-48
2022/08/15 12:24:12;;;;;;;;;;;;;;;;;;5065444;28;20287;-51
2022/08/15 12:26:38;;;;;;;;;;;;;;;;;;5058516;28;19920;-48
2022/08/15 12:29:05;;;;;;;;;;;;;;;;;;5045403;28;19920;-49
2022/08/15 12:31:32;;;;;;;;;;;;;;;;;;5045269;28;19932;-49
2022/08/15 12:34:00;;;;;;;;;;;;;;;;;;5045483;28;20414;-48
2022/08/15 12:36:26;;;;;;;;;;;;;;;;;;5044674;28;20027;-47
2022/08/15 12:38:53;;;;;;;;;;;;;;;;;;5044682;28;20411;-49
2022/08/15 12:41:19;;;;;;;;;;;;;;;;;;5045194;28;19987;-51
2022/08/15 12:43:45;;;;;;;;;;;;;;;;;;5044519;28;19913;-47
2022/08/15 12:46:11;;;;;;;;;;;;;;;;;;5044848;28;20288;-48
2022/08/15 12:48:39;;;;;;;;;;;;;;;;;;5044806;28;20034;-51
2022/08/15 12:51:07;;;;;;;;;;;;;;;;;;5045045;28;19913;-49
2022/08/15 12:53:34;;;;;;;;;;;;;;;;;;5044808;28;19923;-48
2022/08/15 12:56:01;;;;;;;;;;;;;;;;;;5045417;28;19913;-49
2022/08/15 12:58:26;;;;;;;;;;;;;;;;;;5044452;28;19909;-47
2022/08/15 13:00:52;;;;;;;;;;;;;;;;;;5044932;28;20490;-48
2022/08/15 13:03:19;;;;;;;;;;;;;;;;;;5048606;28;19943;-48
2022/08/15 13:05:45;;;;;;;;;;;;;;;;;;5048560;28;19919;-48
2022/08/15 13:08:12;;;;;;;;;;;;;;;;;;5048613;28;19912;-48
2022/08/15 13:10:38;;;;;;;;;;;;;;;;;;5048211;28;19924;-49
2022/08/15 13:13:04;;;;;;;;;;;;;;;;;;5048311;28;20406;-48
2022/08/15 13:15:29;;;;;;;;;;;;;;;;;;5049295;28;19920;-51
2022/08/15 13:17:57;;;;;;;;;;;;;;;;;;5030512;28;19909;-51
2022/08/15 13:25:52;;;;;;;;;;;;;;;;;;5048015;28;19912;-51
2022/08/15 13:28:19;;;;;;;;;;;;;;;;;;5048443;28;19913;-49
2022/08/15 13:30:46;;;;;;;;;;;;;;;;;;5048095;28;19948;-47
2022/08/15 13:33:12;;;;;;;;;;;;;;;;;;5048216;28;20250;-50
2022/08/15 13:35:38;;;;;;;;;;;;;;;;;;5047973;28;19913;-47
2022/08/15 13:38:04;;;;;;;;;;;;;;;;;;5048161;28;20399;-48
2022/08/15 13:40:31;;;;;;;;;;;;;;;;;;5048447;28;19913;-52
2022/08/15 13:42:59;;;;;;;;;;;;;;;;;;5047770;28;19909;-48
2022/08/15 13:45:25;;;;;;;;;;;;;;;;;;5047894;28;20362;-50
2022/08/15 13:47:51;;;;;;;;;;;;;;;;;;5047674;28;20007;-50
2022/08/15 13:50:17;;;;;;;;;;;;;;;;;;5047944;28;20008;-48
2022/08/15 13:52:43;;;;;;;;;;;;;;;;;;5047390;28;20471;-52
2022/08/15 13:55:09;;;;;;;;;;;;;;;;;;5029876;28;19921;-52
2022/08/15 13:57:36;;;;;;;;;;;;;;;;;;5047080;28;19909;-51
2022/08/15 14:00:06;;;;;;;;;;;;;;;;;;5048555;28;20121;-52
2022/08/15 14:02:33;;;;;;;;;;;;;;;;;;5048046;28;19905;-52
2022/08/15 14:04:58;;;;;;;;;;;;;;;;;;5048110;28;20011;-49
2022/08/15 14:07:25;;;;;;;;;;;;;;;;;;5047336;28;20491;-49
2022/08/15 14:09:51;;;;;;;;;;;;;;;;;;5047125;28;19921;-48
2022/08/15 14:12:17;;;;;;;;;;;;;;;;;;5046896;28;19916;-51
2022/08/15 14:14:43;;;;;;;;;;;;;;;;;;5046309;28;20343;-49
2022/08/15 14:17:09;;;;;;;;;;;;;;;;;;5047430;28;19913;-49
2022/08/15 14:19:36;;;;;;;;;;;;;;;;;;5033421;28;20341;-49
2022/08/15 14:22:05;;;;;;;;;;;;;;;;;;5066001;28;19967;-48
2022/08/15 14:24:31;;;;;;;;;;;;;;;;;;5058291;28;20376;-49
2022/08/15 14:26:58;;;;;;;;;;;;;;;;;;5047346;28;20192;-47
2022/08/15 14:29:24;;;;;;;;;;;;;;;;;;5047200;28;20012;-51
2022/08/15 14:31:50;;;;;;;;;;;;;;;;;;5047008;28;20365;-49
2022/08/15 14:34:16;;;;;;;;;;;;;;;;;;5047290;28;19919;-49
2022/08/15 14:36:42;;;;;;;;;;;;;;;;;;5047286;28;19920;-49
2022/08/15 14:39:08;;;;;;;;;;;;;;;;;;5046944;28;19937;-49
2022/08/15 14:41:35;;;;;;;;;;;;;;;;;;5046690;28;20012;-49
2022/08/15 14:44:01;;;;;;;;;;;;;;;;;;5046661;28;19944;-47
2022/08/15 14:46:27;;;;;;;;;;;;;;;;;;5046918;28;20291;-46
2022/08/15 14:48:54;;;;;;;;;;;;;;;;;;5046522;28;19904;-46
2022/08/15 14:51:20;;;;;;;;;;;;;;;;;;5046993;28;19908;-47
2022/08/15 14:53:45;;;;;;;;;;;;;;;;;;5047090;28;19939;-46
2022/08/15 14:56:11;;;;;;;;;;;;;;;;;;5046617;28;19909;-46
2022/08/15 14:58:37;;;;;;;;;;;;;;;;;;5046422;28;19916;-47
2022/08/15 15:01:03;;;;;;;;;;;;;;;;;;5046581;28;20449;-47
2022/08/15 15:03:29;;;;;;;;;;;;;;;;;;5028303;28;19913;-47
2022/08/15 15:05:56;;;;;;;;;;;;;;;;;;5046490;28;20137;-46
2022/08/15 15:08:22;;;;;;;;;;;;;;;;;;5046634;28;20368;-47
2022/08/15 15:10:48;;;;;;;;;;;;;;;;;;5045923;28;19955;-47
2022/08/15 15:13:15;;;;;;;;;;;;;;;;;;5046836;28;20522;-47
2022/08/15 15:15:41;;;;;;;;;;;;;;;;;;5046168;28;19959;-46
2022/08/15 15:18:08;;;;;;;;;;;;;;;;;;5046227;28;20487;-50
2022/08/15 15:20:36;;;;;;;;;;;;;;;;;;5045933;28;19989;-48
2022/08/15 15:23:02;;;;;;;;;;;;;;;;;;5045941;28;19999;-47
2022/08/15 15:25:28;;;;;;;;;;;;;;;;;;5045541;28;20403;-47
2022/08/15 15:27:54;;;;;;;;;;;;;;;;;;5045705;28;19913;-47
2022/08/15 15:30:19;;;;;;;;;;;;;;;;;;5045982;28;19920;-46
2022/08/15 15:32:45;;;;;;;;;;;;;;;;;;5046304;28;20015;-46
2022/08/15 15:35:12;;;;;;;;;;;;;;;;;;5045972;28;19927;-46
2022/08/15 15:37:39;;;;;;;;;;;;;;;;;;5045688;28;20568;-46
2022/08/15 15:40:05;;;;;;;;;;;;;;;;;;5045731;28;19916;-47
2022/08/15 15:42:31;;;;;;;;;;;;;;;;;;5045514;28;19935;-49
2022/08/15 15:44:57;;;;;;;;;;;;;;;;;;5045895;28;19966;-45
2022/08/15 15:47:23;;;;;;;;;;;;;;;;;;5045593;28;19905;-46
2022/08/15 15:49:49;;;;;;;;;;;;;;;;;;5045352;28;20387;-46
2022/08/15 15:52:15;;;;;;;;;;;;;;;;;;5046110;28;19963;-45
2022/08/15 15:54:42;;;;;;;;;;;;;;;;;;5045545;28;19916;-47
2022/08/15 15:57:10;;;;;;;;;;;;;;;;;;5045321;28;19913;-46
2022/08/15 15:59:36;;;;;;;;;;;;;;;;;;5045286;28;19999;-45
2022/08/15 16:02:02;;;;;;;;;;;;;;;;;;5045986;28;19909;-46
2022/08/15 16:04:28;;;;;;;;;;;;;;;;;;5045367;28;20075;-49
2022/08/15 16:06:54;;;;;;;;;;;;;;;;;;5045285;28;19915;-46
2022/08/15 16:09:20;;;;;;;;;;;;;;;;;;5045219;28;19920;-49
2022/08/15 16:11:45;;;;;;;;;;;;;;;;;;5045656;28;19917;-49
2022/08/15 16:14:16;;;;;;;;;;;;;;;;;;5045198;28;19967;-46
2022/08/15 16:16:42;;;;;;;;;;;;;;;;;;5043733;28;20353;-48
2022/08/15 16:19:08;;;;;;;;;;;;;;;;;;5045683;28;19916;-48
2022/08/15 16:21:34;;;;;;;;;;;;;;;;;;5044628;28;19951;-49
2022/08/15 16:24:00;;;;;;;;;;;;;;;;;;5045110;28;19912;-47
2022/08/15 16:26:27;;;;;;;;;;;;;;;;;;5045970;28;19912;-48
2022/08/15 16:28:54;;;;;;;;;;;;;;;;;;5045023;28;19908;-46
2022/08/15 16:31:20;;;;;;;;;;;;;;;;;;5045417;28;19987;-44
2022/08/15 16:33:48;;;;;;;;;;;;;;;;;;5044815;28;19974;-47
2022/08/15 16:36:14;;;;;;;;;;;;;;;;;;5044500;28;19908;-46
2022/08/15 16:38:40;;;;;;;;;;;;;;;;;;5044891;28;19920;-46
2022/08/15 16:41:06;;;;;;;;;;;;;;;;;;5045009;28;19936;-48
2022/08/15 16:43:32;;;;;;;;;;;;;;;;;;5044584;28;19909;-47
2022/08/15 16:45:59;;;;;;;;;;;;;;;;;;5045501;28;19916;-46
2022/08/15 16:48:25;;;;;;;;;;;;;;;;;;5045586;28;19913;-46